sensor_id;sensor_type;location;lat;lon;timestamp;P1;durP1;ratioP1;P2;durP2;ratioP2
48596;SDS011;34382;43.160;24.148;2023-04-03T00:00:41;7.72;;;3.90;;
48596;SDS011;34382;43.160;24.148;2023-04-03T00:02:13;9.30;;;3.85;;
48596;SDS011;34382;43.160;24.148;2023-04-03T00:03:46;7.53;;;3.92;;
48596;SDS011;34382;43.160;24.148;2023-04-03T00:05:18;7.03;;;3.53;;
48596;SDS011;34382;43.160;24.148;2023-04-03T00:06:51;10.15;;;3.75;;
48596;SDS011;34382;43.160;24.148;2023-04-03T00:08:23;7.82;;;3.55;;
48596;SDS011;34382;43.160;24.148;2023-04-03T00:09:55;7.32;;;3.30;;
48596;SDS011;34382;43.160;24.148;2023-04-03T00:11:28;7.88;;;3.85;;
48596;SDS011;34382;43.160;24.148;2023-04-03T00:13:00;7.85;;;3.70;;
48596;SDS011;34382;43.160;24.148;2023-04-03T00:14:32;7.68;;;3.38;;
48596;SDS011;34382;43.160;24.148;2023-04-03T00:16:05;6.78;;;3.40;;
48596;SDS011;34382;43.160;24.148;2023-04-03T00:19:13;8.98;;;3.53;;
48596;SDS011;34382;43.160;24.148;2023-04-03T00:20:45;8.32;;;3.67;;
48596;SDS011;34382;43.160;24.148;2023-04-03T00:22:17;7.15;;;3.60;;
48596;SDS011;34382;43.160;24.148;2023-04-03T00:23:49;8.77;;;4.40;;
48596;SDS011;34382;43.160;24.148;2023-04-03T00:25:22;7.90;;;4.07;;
48596;SDS011;34382;43.160;24.148;2023-04-03T00:26:54;9.48;;;4.70;;
48596;SDS011;34382;43.160;24.148;2023-04-03T00:28:26;7.90;;;3.38;;
48596;SDS011;34382;43.160;24.148;2023-04-03T00:29:58;8.13;;;3.40;;
48596;SDS011;34382;43.160;24.148;2023-04-03T00:31:31;7.18;;;3.78;;
48596;SDS011;34382;43.160;24.148;2023-04-03T00:33:03;8.70;;;4.07;;
48596;SDS011;34382;43.160;24.148;2023-04-03T00:34:35;6.40;;;3.42;;
48596;SDS011;34382;43.160;24.148;2023-04-03T00:36:08;8.52;;;4.05;;
48596;SDS011;34382;43.160;24.148;2023-04-03T00:37:42;8.20;;;3.90;;
48596;SDS011;34382;43.160;24.148;2023-04-03T00:39:14;9.30;;;4.20;;
48596;SDS011;34382;43.160;24.148;2023-04-03T00:40:48;7.07;;;3.45;;
48596;SDS011;34382;43.160;24.148;2023-04-03T00:42:20;7.28;;;4.10;;
48596;SDS011;34382;43.160;24.148;2023-04-03T00:43:53;6.88;;;3.45;;
48596;SDS011;34382;43.160;24.148;2023-04-03T00:47:06;7.20;;;3.65;;
48596;SDS011;34382;43.160;24.148;2023-04-03T00:48:44;7.82;;;3.55;;
48596;SDS011;34382;43.160;24.148;2023-04-03T00:50:17;7.43;;;3.83;;
48596;SDS011;34382;43.160;24.148;2023-04-03T00:51:49;7.40;;;3.70;;
48596;SDS011;34382;43.160;24.148;2023-04-03T00:53:23;9.15;;;4.20;;
48596;SDS011;34382;43.160;24.148;2023-04-03T00:54:59;10.77;;;4.65;;
48596;SDS011;34382;43.160;24.148;2023-04-03T00:56:34;8.00;;;4.28;;
48596;SDS011;34382;43.160;24.148;2023-04-03T00:58:08;8.40;;;4.32;;
48596;SDS011;34382;43.160;24.148;2023-04-03T00:59:42;7.05;;;3.90;;
48596;SDS011;34382;43.160;24.148;2023-04-03T01:01:18;7.97;;;4.20;;
48596;SDS011;34382;43.160;24.148;2023-04-03T01:02:53;8.88;;;4.47;;
48596;SDS011;34382;43.160;24.148;2023-04-03T01:06:03;9.45;;;3.97;;
48596;SDS011;34382;43.160;24.148;2023-04-03T01:07:35;7.35;;;3.75;;
48596;SDS011;34382;43.160;24.148;2023-04-03T01:09:08;7.10;;;3.40;;
48596;SDS011;34382;43.160;24.148;2023-04-03T01:10:40;7.70;;;3.88;;
48596;SDS011;34382;43.160;24.148;2023-04-03T01:12:19;7.03;;;3.88;;
48596;SDS011;34382;43.160;24.148;2023-04-03T01:13:57;6.13;;;3.22;;
48596;SDS011;34382;43.160;24.148;2023-04-03T01:15:29;7.35;;;3.78;;
48596;SDS011;34382;43.160;24.148;2023-04-03T01:19:19;8.77;;;3.80;;
48596;SDS011;34382;43.160;24.148;2023-04-03T01:22:29;9.70;;;4.72;;
48596;SDS011;34382;43.160;24.148;2023-04-03T01:24:11;10.07;;;4.95;;
48596;SDS011;34382;43.160;24.148;2023-04-03T01:25:52;9.75;;;4.40;;
48596;SDS011;34382;43.160;24.148;2023-04-03T01:27:26;7.05;;;3.72;;
48596;SDS011;34382;43.160;24.148;2023-04-03T01:28:59;9.15;;;4.50;;
48596;SDS011;34382;43.160;24.148;2023-04-03T01:30:36;9.55;;;4.60;;
48596;SDS011;34382;43.160;24.148;2023-04-03T01:32:20;20.17;;;11.27;;
48596;SDS011;34382;43.160;24.148;2023-04-03T01:33:53;9.30;;;3.53;;
48596;SDS011;34382;43.160;24.148;2023-04-03T01:35:25;8.93;;;3.85;;
48596;SDS011;34382;43.160;24.148;2023-04-03T01:37:01;8.95;;;3.95;;
48596;SDS011;34382;43.160;24.148;2023-04-03T01:38:33;7.13;;;3.75;;
48596;SDS011;34382;43.160;24.148;2023-04-03T01:40:05;6.40;;;3.20;;
48596;SDS011;34382;43.160;24.148;2023-04-03T01:41:38;7.45;;;3.42;;
48596;SDS011;34382;43.160;24.148;2023-04-03T01:43:10;7.30;;;3.72;;
48596;SDS011;34382;43.160;24.148;2023-04-03T01:44:43;6.95;;;3.30;;
48596;SDS011;34382;43.160;24.148;2023-04-03T01:46:16;9.55;;;4.30;;
48596;SDS011;34382;43.160;24.148;2023-04-03T01:47:49;11.90;;;5.13;;
48596;SDS011;34382;43.160;24.148;2023-04-03T01:49:21;14.85;;;5.82;;
48596;SDS011;34382;43.160;24.148;2023-04-03T01:50:53;12.85;;;5.50;;
48596;SDS011;34382;43.160;24.148;2023-04-03T01:52:26;11.60;;;5.43;;
48596;SDS011;34382;43.160;24.148;2023-04-03T01:53:58;8.80;;;3.97;;
48596;SDS011;34382;43.160;24.148;2023-04-03T01:55:30;9.35;;;3.95;;
48596;SDS011;34382;43.160;24.148;2023-04-03T01:57:03;8.77;;;3.67;;
48596;SDS011;34382;43.160;24.148;2023-04-03T01:58:35;7.32;;;3.40;;
48596;SDS011;34382;43.160;24.148;2023-04-03T02:00:07;7.35;;;3.05;;
48596;SDS011;34382;43.160;24.148;2023-04-03T02:01:43;6.28;;;3.20;;
48596;SDS011;34382;43.160;24.148;2023-04-03T02:03:16;6.47;;;3.10;;
48596;SDS011;34382;43.160;24.148;2023-04-03T02:04:49;8.07;;;3.70;;
48596;SDS011;34382;43.160;24.148;2023-04-03T02:06:21;6.25;;;3.28;;
48596;SDS011;34382;43.160;24.148;2023-04-03T02:07:54;7.15;;;2.90;;
48596;SDS011;34382;43.160;24.148;2023-04-03T02:09:26;5.78;;;2.90;;
48596;SDS011;34382;43.160;24.148;2023-04-03T02:10:58;7.15;;;3.47;;
48596;SDS011;34382;43.160;24.148;2023-04-03T02:12:30;6.30;;;3.08;;
48596;SDS011;34382;43.160;24.148;2023-04-03T02:14:03;5.03;;;2.70;;
48596;SDS011;34382;43.160;24.148;2023-04-03T02:15:38;5.97;;;2.95;;
48596;SDS011;34382;43.160;24.148;2023-04-03T02:17:11;6.72;;;3.00;;
48596;SDS011;34382;43.160;24.148;2023-04-03T02:18:43;8.70;;;3.90;;
48596;SDS011;34382;43.160;24.148;2023-04-03T02:20:15;8.77;;;3.95;;
48596;SDS011;34382;43.160;24.148;2023-04-03T02:23:20;8.93;;;3.97;;
48596;SDS011;34382;43.160;24.148;2023-04-03T02:24:52;9.55;;;3.65;;
48596;SDS011;34382;43.160;24.148;2023-04-03T02:26:25;6.60;;;3.13;;
48596;SDS011;34382;43.160;24.148;2023-04-03T02:27:57;8.20;;;3.70;;
48596;SDS011;34382;43.160;24.148;2023-04-03T02:29:30;6.38;;;2.85;;
48596;SDS011;34382;43.160;24.148;2023-04-03T02:31:02;5.85;;;2.97;;
48596;SDS011;34382;43.160;24.148;2023-04-03T02:32:35;7.35;;;2.95;;
48596;SDS011;34382;43.160;24.148;2023-04-03T02:34:07;5.53;;;2.60;;
48596;SDS011;34382;43.160;24.148;2023-04-03T02:35:39;5.82;;;3.00;;
48596;SDS011;34382;43.160;24.148;2023-04-03T02:37:11;6.75;;;2.67;;
48596;SDS011;34382;43.160;24.148;2023-04-03T02:38:44;6.93;;;2.92;;
48596;SDS011;34382;43.160;24.148;2023-04-03T02:40:17;6.35;;;2.80;;
48596;SDS011;34382;43.160;24.148;2023-04-03T02:41:49;5.88;;;2.78;;
48596;SDS011;34382;43.160;24.148;2023-04-03T02:43:21;5.88;;;2.70;;
48596;SDS011;34382;43.160;24.148;2023-04-03T02:44:53;6.40;;;2.90;;
48596;SDS011;34382;43.160;24.148;2023-04-03T02:46:29;5.90;;;2.70;;
48596;SDS011;34382;43.160;24.148;2023-04-03T02:48:01;5.97;;;2.67;;
48596;SDS011;34382;43.160;24.148;2023-04-03T02:49:34;5.57;;;2.92;;
48596;SDS011;34382;43.160;24.148;2023-04-03T02:51:06;5.60;;;2.70;;
48596;SDS011;34382;43.160;24.148;2023-04-03T02:52:38;6.38;;;2.70;;
48596;SDS011;34382;43.160;24.148;2023-04-03T02:54:11;6.22;;;2.72;;
48596;SDS011;34382;43.160;24.148;2023-04-03T02:55:43;7.63;;;3.30;;
48596;SDS011;34382;43.160;24.148;2023-04-03T02:57:15;6.00;;;2.72;;
48596;SDS011;34382;43.160;24.148;2023-04-03T02:58:48;5.78;;;2.97;;
48596;SDS011;34382;43.160;24.148;2023-04-03T03:00:20;6.13;;;2.83;;
48596;SDS011;34382;43.160;24.148;2023-04-03T03:01:52;7.43;;;3.03;;
48596;SDS011;34382;43.160;24.148;2023-04-03T03:03:24;6.03;;;2.63;;
48596;SDS011;34382;43.160;24.148;2023-04-03T03:04:56;6.13;;;2.78;;
48596;SDS011;34382;43.160;24.148;2023-04-03T03:06:29;6.03;;;2.95;;
48596;SDS011;34382;43.160;24.148;2023-04-03T03:08:02;5.93;;;2.85;;
48596;SDS011;34382;43.160;24.148;2023-04-03T03:09:34;5.70;;;2.80;;
48596;SDS011;34382;43.160;24.148;2023-04-03T03:11:06;6.68;;;3.30;;
48596;SDS011;34382;43.160;24.148;2023-04-03T03:12:38;6.28;;;2.58;;
48596;SDS011;34382;43.160;24.148;2023-04-03T03:14:12;9.10;;;2.75;;
48596;SDS011;34382;43.160;24.148;2023-04-03T03:15:44;6.18;;;2.67;;
48596;SDS011;34382;43.160;24.148;2023-04-03T03:17:16;5.05;;;2.70;;
48596;SDS011;34382;43.160;24.148;2023-04-03T03:18:49;5.78;;;2.75;;
48596;SDS011;34382;43.160;24.148;2023-04-03T03:20:21;5.78;;;2.53;;
48596;SDS011;34382;43.160;24.148;2023-04-03T03:21:53;6.72;;;2.80;;
48596;SDS011;34382;43.160;24.148;2023-04-03T03:23:26;7.18;;;3.20;;
48596;SDS011;34382;43.160;24.148;2023-04-03T03:24:59;7.95;;;3.05;;
48596;SDS011;34382;43.160;24.148;2023-04-03T03:26:32;5.32;;;2.70;;
48596;SDS011;34382;43.160;24.148;2023-04-03T03:28:05;5.22;;;2.70;;
48596;SDS011;34382;43.160;24.148;2023-04-03T03:29:39;6.22;;;2.88;;
48596;SDS011;34382;43.160;24.148;2023-04-03T03:31:11;5.75;;;2.72;;
48596;SDS011;34382;43.160;24.148;2023-04-03T03:32:44;4.90;;;2.40;;
48596;SDS011;34382;43.160;24.148;2023-04-03T03:34:16;6.38;;;3.00;;
48596;SDS011;34382;43.160;24.148;2023-04-03T03:35:48;5.78;;;2.80;;
48596;SDS011;34382;43.160;24.148;2023-04-03T03:37:21;6.00;;;2.93;;
48596;SDS011;34382;43.160;24.148;2023-04-03T03:38:53;6.57;;;2.50;;
48596;SDS011;34382;43.160;24.148;2023-04-03T03:40:25;7.68;;;3.45;;
48596;SDS011;34382;43.160;24.148;2023-04-03T03:41:58;24.75;;;17.10;;
48596;SDS011;34382;43.160;24.148;2023-04-03T03:43:30;32.75;;;23.77;;
48596;SDS011;34382;43.160;24.148;2023-04-03T03:45:02;23.70;;;15.77;;
48596;SDS011;34382;43.160;24.148;2023-04-03T03:46:34;20.23;;;11.43;;
48596;SDS011;34382;43.160;24.148;2023-04-03T03:48:06;9.05;;;4.80;;
48596;SDS011;34382;43.160;24.148;2023-04-03T03:49:39;10.32;;;6.57;;
48596;SDS011;34382;43.160;24.148;2023-04-03T03:51:12;8.30;;;4.18;;
48596;SDS011;34382;43.160;24.148;2023-04-03T03:52:44;7.03;;;3.38;;
48596;SDS011;34382;43.160;24.148;2023-04-03T03:54:17;7.43;;;2.75;;
48596;SDS011;34382;43.160;24.148;2023-04-03T03:55:49;6.28;;;3.10;;
48596;SDS011;34382;43.160;24.148;2023-04-03T03:57:22;6.35;;;3.08;;
48596;SDS011;34382;43.160;24.148;2023-04-03T03:58:54;7.85;;;3.35;;
48596;SDS011;34382;43.160;24.148;2023-04-03T04:02:00;17.52;;;9.93;;
48596;SDS011;34382;43.160;24.148;2023-04-03T04:03:32;23.97;;;9.17;;
48596;SDS011;34382;43.160;24.148;2023-04-03T04:06:40;9.70;;;5.65;;
48596;SDS011;34382;43.160;24.148;2023-04-03T04:08:12;8.50;;;4.35;;
48596;SDS011;34382;43.160;24.148;2023-04-03T04:09:45;10.90;;;6.05;;
48596;SDS011;34382;43.160;24.148;2023-04-03T04:11:17;9.45;;;5.40;;
48596;SDS011;34382;43.160;24.148;2023-04-03T04:12:50;10.85;;;5.80;;
48596;SDS011;34382;43.160;24.148;2023-04-03T04:14:25;6.57;;;2.95;;
48596;SDS011;34382;43.160;24.148;2023-04-03T04:15:58;7.82;;;3.10;;
48596;SDS011;34382;43.160;24.148;2023-04-03T04:17:30;8.73;;;3.75;;
48596;SDS011;34382;43.160;24.148;2023-04-03T04:19:02;11.77;;;7.63;;
48596;SDS011;34382;43.160;24.148;2023-04-03T04:20:37;12.75;;;6.70;;
48596;SDS011;34382;43.160;24.148;2023-04-03T04:22:10;14.00;;;7.53;;
48596;SDS011;34382;43.160;24.148;2023-04-03T04:23:42;9.07;;;5.63;;
48596;SDS011;34382;43.160;24.148;2023-04-03T04:25:14;9.48;;;4.53;;
48596;SDS011;34382;43.160;24.148;2023-04-03T04:26:46;10.35;;;4.65;;
48596;SDS011;34382;43.160;24.148;2023-04-03T04:28:19;9.75;;;4.57;;
48596;SDS011;34382;43.160;24.148;2023-04-03T04:29:51;9.43;;;4.70;;
48596;SDS011;34382;43.160;24.148;2023-04-03T04:31:23;10.70;;;4.43;;
48596;SDS011;34382;43.160;24.148;2023-04-03T04:32:56;8.05;;;4.32;;
48596;SDS011;34382;43.160;24.148;2023-04-03T04:34:28;11.60;;;4.47;;
48596;SDS011;34382;43.160;24.148;2023-04-03T04:36:01;7.40;;;4.00;;
48596;SDS011;34382;43.160;24.148;2023-04-03T04:37:34;8.93;;;3.77;;
48596;SDS011;34382;43.160;24.148;2023-04-03T04:39:06;9.38;;;4.97;;
48596;SDS011;34382;43.160;24.148;2023-04-03T04:42:11;8.57;;;3.70;;
48596;SDS011;34382;43.160;24.148;2023-04-03T04:43:48;8.95;;;3.95;;
48596;SDS011;34382;43.160;24.148;2023-04-03T04:45:24;7.82;;;3.67;;
48596;SDS011;34382;43.160;24.148;2023-04-03T04:46:56;8.40;;;3.30;;
48596;SDS011;34382;43.160;24.148;2023-04-03T04:48:28;6.65;;;2.90;;
48596;SDS011;34382;43.160;24.148;2023-04-03T04:50:03;6.70;;;3.00;;
48596;SDS011;34382;43.160;24.148;2023-04-03T04:51:35;5.77;;;3.07;;
48596;SDS011;34382;43.160;24.148;2023-04-03T04:53:21;7.85;;;3.88;;
48596;SDS011;34382;43.160;24.148;2023-04-03T04:54:53;9.48;;;5.05;;
48596;SDS011;34382;43.160;24.148;2023-04-03T04:56:26;8.45;;;4.22;;
48596;SDS011;34382;43.160;24.148;2023-04-03T04:57:58;11.50;;;4.35;;
48596;SDS011;34382;43.160;24.148;2023-04-03T04:59:30;8.38;;;4.47;;
48596;SDS011;34382;43.160;24.148;2023-04-03T05:01:04;9.70;;;4.97;;
48596;SDS011;34382;43.160;24.148;2023-04-03T05:02:37;9.82;;;5.18;;
48596;SDS011;34382;43.160;24.148;2023-04-03T05:04:09;11.52;;;5.40;;
48596;SDS011;34382;43.160;24.148;2023-04-03T05:05:42;10.02;;;5.22;;
48596;SDS011;34382;43.160;24.148;2023-04-03T05:07:14;8.48;;;3.88;;
48596;SDS011;34382;43.160;24.148;2023-04-03T05:08:46;6.45;;;3.22;;
48596;SDS011;34382;43.160;24.148;2023-04-03T05:10:18;5.80;;;2.75;;
48596;SDS011;34382;43.160;24.148;2023-04-03T05:11:52;6.38;;;2.90;;
48596;SDS011;34382;43.160;24.148;2023-04-03T05:13:24;6.90;;;3.00;;
48596;SDS011;34382;43.160;24.148;2023-04-03T05:14:56;6.75;;;3.00;;
48596;SDS011;34382;43.160;24.148;2023-04-03T05:16:28;6.05;;;2.80;;
48596;SDS011;34382;43.160;24.148;2023-04-03T05:18:01;6.78;;;2.90;;
48596;SDS011;34382;43.160;24.148;2023-04-03T05:19:33;6.55;;;3.13;;
48596;SDS011;34382;43.160;24.148;2023-04-03T05:21:05;8.38;;;3.20;;
48596;SDS011;34382;43.160;24.148;2023-04-03T05:22:37;6.10;;;2.88;;
48596;SDS011;34382;43.160;24.148;2023-04-03T05:24:09;8.02;;;3.50;;
48596;SDS011;34382;43.160;24.148;2023-04-03T05:25:42;7.82;;;3.03;;
48596;SDS011;34382;43.160;24.148;2023-04-03T05:27:16;7.93;;;3.47;;
48596;SDS011;34382;43.160;24.148;2023-04-03T05:28:48;6.60;;;3.20;;
48596;SDS011;34382;43.160;24.148;2023-04-03T05:30:20;7.95;;;3.33;;
48596;SDS011;34382;43.160;24.148;2023-04-03T05:31:53;7.00;;;3.25;;
48596;SDS011;34382;43.160;24.148;2023-04-03T05:33:25;7.05;;;3.10;;
48596;SDS011;34382;43.160;24.148;2023-04-03T05:34:58;6.78;;;2.90;;
48596;SDS011;34382;43.160;24.148;2023-04-03T05:38:04;7.63;;;3.65;;
48596;SDS011;34382;43.160;24.148;2023-04-03T05:39:36;9.05;;;3.72;;
48596;SDS011;34382;43.160;24.148;2023-04-03T05:41:10;7.28;;;2.90;;
48596;SDS011;34382;43.160;24.148;2023-04-03T05:42:43;7.60;;;3.30;;
48596;SDS011;34382;43.160;24.148;2023-04-03T05:44:15;7.57;;;3.42;;
48596;SDS011;34382;43.160;24.148;2023-04-03T05:45:48;6.00;;;2.75;;
48596;SDS011;34382;43.160;24.148;2023-04-03T05:47:20;6.05;;;3.03;;
48596;SDS011;34382;43.160;24.148;2023-04-03T05:48:52;8.73;;;3.35;;
48596;SDS011;34382;43.160;24.148;2023-04-03T05:50:24;9.85;;;3.55;;
48596;SDS011;34382;43.160;24.148;2023-04-03T05:51:56;13.77;;;5.05;;
48596;SDS011;34382;43.160;24.148;2023-04-03T05:53:29;14.43;;;4.65;;
48596;SDS011;34382;43.160;24.148;2023-04-03T05:55:04;12.23;;;4.68;;
48596;SDS011;34382;43.160;24.148;2023-04-03T05:56:37;9.82;;;4.20;;
48596;SDS011;34382;43.160;24.148;2023-04-03T05:58:09;11.02;;;4.22;;
48596;SDS011;34382;43.160;24.148;2023-04-03T05:59:42;10.18;;;5.03;;
48596;SDS011;34382;43.160;24.148;2023-04-03T06:01:15;10.18;;;4.60;;
48596;SDS011;34382;43.160;24.148;2023-04-03T06:02:47;9.23;;;4.83;;
48596;SDS011;34382;43.160;24.148;2023-04-03T06:04:20;8.70;;;4.80;;
48596;SDS011;34382;43.160;24.148;2023-04-03T06:05:52;9.40;;;5.30;;
48596;SDS011;34382;43.160;24.148;2023-04-03T06:07:25;8.38;;;4.70;;
48596;SDS011;34382;43.160;24.148;2023-04-03T06:09:00;8.50;;;4.38;;
48596;SDS011;34382;43.160;24.148;2023-04-03T06:10:34;10.27;;;5.07;;
48596;SDS011;34382;43.160;24.148;2023-04-03T06:12:08;10.25;;;4.10;;
48596;SDS011;34382;43.160;24.148;2023-04-03T06:13:41;10.50;;;5.20;;
48596;SDS011;34382;43.160;24.148;2023-04-03T06:15:13;7.82;;;4.00;;
48596;SDS011;34382;43.160;24.148;2023-04-03T06:16:46;10.32;;;4.60;;
48596;SDS011;34382;43.160;24.148;2023-04-03T06:18:18;9.88;;;4.55;;
48596;SDS011;34382;43.160;24.148;2023-04-03T06:19:51;8.23;;;4.40;;
48596;SDS011;34382;43.160;24.148;2023-04-03T06:21:23;9.50;;;4.72;;
48596;SDS011;34382;43.160;24.148;2023-04-03T06:22:55;7.43;;;3.75;;
48596;SDS011;34382;43.160;24.148;2023-04-03T06:24:28;7.90;;;3.67;;
48596;SDS011;34382;43.160;24.148;2023-04-03T06:26:00;8.88;;;3.78;;
48596;SDS011;34382;43.160;24.148;2023-04-03T06:27:33;11.55;;;4.30;;
48596;SDS011;34382;43.160;24.148;2023-04-03T06:29:05;8.02;;;3.88;;
48596;SDS011;34382;43.160;24.148;2023-04-03T06:30:37;8.55;;;3.60;;
48596;SDS011;34382;43.160;24.148;2023-04-03T06:32:10;9.20;;;3.55;;
48596;SDS011;34382;43.160;24.148;2023-04-03T06:33:42;10.73;;;3.97;;
48596;SDS011;34382;43.160;24.148;2023-04-03T06:35:14;8.38;;;3.72;;
48596;SDS011;34382;43.160;24.148;2023-04-03T06:36:47;7.50;;;3.90;;
48596;SDS011;34382;43.160;24.148;2023-04-03T06:38:22;7.95;;;3.72;;
48596;SDS011;34382;43.160;24.148;2023-04-03T06:39:55;8.13;;;3.80;;
48596;SDS011;34382;43.160;24.148;2023-04-03T06:41:27;7.90;;;3.93;;
48596;SDS011;34382;43.160;24.148;2023-04-03T06:44:44;9.10;;;3.95;;
48596;SDS011;34382;43.160;24.148;2023-04-03T06:46:17;8.25;;;4.30;;
48596;SDS011;34382;43.160;24.148;2023-04-03T06:47:52;8.43;;;4.82;;
48596;SDS011;34382;43.160;24.148;2023-04-03T06:49:24;8.88;;;4.75;;
48596;SDS011;34382;43.160;24.148;2023-04-03T06:50:57;8.88;;;4.43;;
48596;SDS011;34382;43.160;24.148;2023-04-03T06:52:29;8.48;;;4.45;;
48596;SDS011;34382;43.160;24.148;2023-04-03T06:54:01;6.93;;;3.75;;
48596;SDS011;34382;43.160;24.148;2023-04-03T06:55:35;8.02;;;4.00;;
48596;SDS011;34382;43.160;24.148;2023-04-03T06:57:09;7.75;;;3.95;;
48596;SDS011;34382;43.160;24.148;2023-04-03T06:58:42;7.30;;;3.70;;
48596;SDS011;34382;43.160;24.148;2023-04-03T07:00:14;7.15;;;3.50;;
48596;SDS011;34382;43.160;24.148;2023-04-03T07:01:47;8.32;;;3.83;;
48596;SDS011;34382;43.160;24.148;2023-04-03T07:03:20;8.70;;;4.40;;
48596;SDS011;34382;43.160;24.148;2023-04-03T07:04:55;7.78;;;3.80;;
48596;SDS011;34382;43.160;24.148;2023-04-03T07:06:28;10.63;;;3.88;;
48596;SDS011;34382;43.160;24.148;2023-04-03T07:08:00;8.05;;;3.67;;
48596;SDS011;34382;43.160;24.148;2023-04-03T07:09:32;7.18;;;3.22;;
48596;SDS011;34382;43.160;24.148;2023-04-03T07:11:05;8.48;;;3.15;;
48596;SDS011;34382;43.160;24.148;2023-04-03T07:14:11;6.57;;;3.03;;
48596;SDS011;34382;43.160;24.148;2023-04-03T07:15:43;7.00;;;2.83;;
48596;SDS011;34382;43.160;24.148;2023-04-03T07:17:16;6.63;;;2.85;;
48596;SDS011;34382;43.160;24.148;2023-04-03T07:18:48;6.65;;;3.15;;
48596;SDS011;34382;43.160;24.148;2023-04-03T07:20:20;6.68;;;3.05;;
48596;SDS011;34382;43.160;24.148;2023-04-03T07:21:52;7.95;;;3.50;;
48596;SDS011;34382;43.160;24.148;2023-04-03T07:23:24;7.55;;;3.13;;
48596;SDS011;34382;43.160;24.148;2023-04-03T07:24:57;7.35;;;3.45;;
48596;SDS011;34382;43.160;24.148;2023-04-03T07:28:03;7.97;;;3.45;;
48596;SDS011;34382;43.160;24.148;2023-04-03T07:29:35;8.55;;;3.35;;
48596;SDS011;34382;43.160;24.148;2023-04-03T07:31:10;8.50;;;3.63;;
48596;SDS011;34382;43.160;24.148;2023-04-03T07:32:45;9.40;;;3.97;;
48596;SDS011;34382;43.160;24.148;2023-04-03T07:34:17;7.68;;;3.67;;
48596;SDS011;34382;43.160;24.148;2023-04-03T07:35:50;8.02;;;3.83;;
48596;SDS011;34382;43.160;24.148;2023-04-03T07:37:22;8.07;;;3.93;;
48596;SDS011;34382;43.160;24.148;2023-04-03T07:38:54;6.90;;;3.50;;
48596;SDS011;34382;43.160;24.148;2023-04-03T07:40:26;7.15;;;3.00;;
48596;SDS011;34382;43.160;24.148;2023-04-03T07:41:59;7.57;;;2.80;;
48596;SDS011;34382;43.160;24.148;2023-04-03T07:43:32;6.18;;;2.83;;
48596;SDS011;34382;43.160;24.148;2023-04-03T07:45:05;6.07;;;2.70;;
48596;SDS011;34382;43.160;24.148;2023-04-03T07:46:38;5.88;;;2.20;;
48596;SDS011;34382;43.160;24.148;2023-04-03T07:48:11;5.05;;;2.30;;
48596;SDS011;34382;43.160;24.148;2023-04-03T07:51:16;5.20;;;2.47;;
48596;SDS011;34382;43.160;24.148;2023-04-03T07:52:48;5.22;;;2.38;;
48596;SDS011;34382;43.160;24.148;2023-04-03T07:54:22;6.25;;;2.22;;
48596;SDS011;34382;43.160;24.148;2023-04-03T07:55:54;5.85;;;2.42;;
48596;SDS011;34382;43.160;24.148;2023-04-03T07:57:28;4.60;;;2.20;;
48596;SDS011;34382;43.160;24.148;2023-04-03T07:59:01;6.13;;;2.47;;
48596;SDS011;34382;43.160;24.148;2023-04-03T08:00:33;8.18;;;2.30;;
48596;SDS011;34382;43.160;24.148;2023-04-03T08:02:08;2.78;;;1.70;;
48596;SDS011;34382;43.160;24.148;2023-04-03T08:03:41;3.85;;;1.80;;
48596;SDS011;34382;43.160;24.148;2023-04-03T08:05:13;5.80;;;2.10;;
48596;SDS011;34382;43.160;24.148;2023-04-03T08:06:46;4.88;;;2.10;;
48596;SDS011;34382;43.160;24.148;2023-04-03T08:08:19;3.38;;;1.60;;
48596;SDS011;34382;43.160;24.148;2023-04-03T08:09:53;4.63;;;1.92;;
48596;SDS011;34382;43.160;24.148;2023-04-03T08:11:25;5.70;;;1.98;;
48596;SDS011;34382;43.160;24.148;2023-04-03T08:12:58;4.15;;;1.90;;
48596;SDS011;34382;43.160;24.148;2023-04-03T08:14:31;5.97;;;2.45;;
48596;SDS011;34382;43.160;24.148;2023-04-03T08:16:10;6.20;;;2.50;;
48596;SDS011;34382;43.160;24.148;2023-04-03T08:17:53;6.90;;;2.75;;
48596;SDS011;34382;43.160;24.148;2023-04-03T08:19:25;4.57;;;2.28;;
48596;SDS011;34382;43.160;24.148;2023-04-03T08:20:58;6.03;;;2.20;;
48596;SDS011;34382;43.160;24.148;2023-04-03T08:22:30;4.97;;;1.70;;
48596;SDS011;34382;43.160;24.148;2023-04-03T08:24:02;6.00;;;2.00;;
48596;SDS011;34382;43.160;24.148;2023-04-03T08:25:39;6.07;;;1.88;;
48596;SDS011;34382;43.160;24.148;2023-04-03T08:27:12;4.68;;;1.80;;
48596;SDS011;34382;43.160;24.148;2023-04-03T08:28:44;4.07;;;1.40;;
48596;SDS011;34382;43.160;24.148;2023-04-03T08:30:17;3.03;;;1.40;;
48596;SDS011;34382;43.160;24.148;2023-04-03T08:31:49;4.95;;;1.70;;
48596;SDS011;34382;43.160;24.148;2023-04-03T08:33:22;2.67;;;1.42;;
48596;SDS011;34382;43.160;24.148;2023-04-03T08:34:54;3.40;;;1.50;;
48596;SDS011;34382;43.160;24.148;2023-04-03T08:36:28;2.90;;;1.42;;
48596;SDS011;34382;43.160;24.148;2023-04-03T08:38:01;3.75;;;1.50;;
48596;SDS011;34382;43.160;24.148;2023-04-03T08:39:33;3.28;;;1.70;;
48596;SDS011;34382;43.160;24.148;2023-04-03T08:44:57;2.37;;;1.37;;
48596;SDS011;34382;43.160;24.148;2023-04-03T08:46:47;1.67;;;1.20;;
48596;SDS011;34382;43.160;24.148;2023-04-03T08:48:31;2.92;;;1.33;;
48596;SDS011;34382;43.160;24.148;2023-04-03T08:50:07;5.90;;;1.98;;
48596;SDS011;34382;43.160;24.148;2023-04-03T08:51:45;8.73;;;3.20;;
48596;SDS011;34382;43.160;24.148;2023-04-03T08:53:20;2.88;;;1.50;;
48596;SDS011;34382;43.160;24.148;2023-04-03T08:54:54;4.30;;;1.60;;
48596;SDS011;34382;43.160;24.148;2023-04-03T08:56:29;4.07;;;1.60;;
48596;SDS011;34382;43.160;24.148;2023-04-03T08:58:06;6.47;;;2.28;;
48596;SDS011;34382;43.160;24.148;2023-04-03T08:59:41;6.47;;;2.55;;
48596;SDS011;34382;43.160;24.148;2023-04-03T09:01:21;4.88;;;1.70;;
48596;SDS011;34382;43.160;24.148;2023-04-03T09:02:56;5.57;;;2.20;;
48596;SDS011;34382;43.160;24.148;2023-04-03T09:04:29;2.80;;;1.55;;
48596;SDS011;34382;43.160;24.148;2023-04-03T09:07:53;5.93;;;2.10;;
48596;SDS011;34382;43.160;24.148;2023-04-03T09:12:42;4.30;;;1.83;;
48596;SDS011;34382;43.160;24.148;2023-04-03T09:15:55;7.80;;;2.80;;
48596;SDS011;34382;43.160;24.148;2023-04-03T09:21:17;3.33;;;1.60;;
48596;SDS011;34382;43.160;24.148;2023-04-03T09:22:53;3.30;;;1.40;;
48596;SDS011;34382;43.160;24.148;2023-04-03T09:24:26;4.13;;;1.70;;
48596;SDS011;34382;43.160;24.148;2023-04-03T09:26:02;4.00;;;1.70;;
48596;SDS011;34382;43.160;24.148;2023-04-03T09:27:40;4.18;;;2.00;;
48596;SDS011;34382;43.160;24.148;2023-04-03T09:29:16;6.82;;;2.50;;
48596;SDS011;34382;43.160;24.148;2023-04-03T09:30:50;4.82;;;2.10;;
48596;SDS011;34382;43.160;24.148;2023-04-03T09:32:27;9.35;;;3.08;;
48596;SDS011;34382;43.160;24.148;2023-04-03T09:34:02;6.63;;;2.40;;
48596;SDS011;34382;43.160;24.148;2023-04-03T09:35:38;5.75;;;1.80;;
48596;SDS011;34382;43.160;24.148;2023-04-03T09:39:13;5.15;;;2.13;;
48596;SDS011;34382;43.160;24.148;2023-04-03T09:42:34;5.32;;;2.60;;
48596;SDS011;34382;43.160;24.148;2023-04-03T09:44:20;4.95;;;2.20;;
48596;SDS011;34382;43.160;24.148;2023-04-03T09:45:54;4.32;;;1.65;;
48596;SDS011;34382;43.160;24.148;2023-04-03T09:49:03;4.70;;;2.28;;
48596;SDS011;34382;43.160;24.148;2023-04-03T09:52:32;6.10;;;2.42;;
48596;SDS011;34382;43.160;24.148;2023-04-03T09:54:31;2.17;;;1.48;;
48596;SDS011;34382;43.160;24.148;2023-04-03T09:57:49;2.28;;;1.50;;
48596;SDS011;34382;43.160;24.148;2023-04-03T09:59:24;6.07;;;2.25;;